sensor_id;sensor_type;location;lat;lon;timestamp;pressure;altitude;pressure_sealevel;temperature;humidity
77216;BME280;66210;53.282;9.864;2023-02-28T00:01:28;102630.56;;;-0.08;78.64
77216;BME280;66210;53.282;9.864;2023-02-28T00:03:56;102622.34;;;-0.14;79.29
77216;BME280;66210;53.282;9.864;2023-02-28T00:06:23;102631.09;;;-0.18;79.23
77216;BME280;66210;53.282;9.864;2023-02-28T00:08:50;102625.34;;;-0.24;79.16
77216;BME280;66210;53.282;9.864;2023-02-28T00:11:17;102618.19;;;-0.28;79.16
77216;BME280;66210;53.282;9.864;2023-02-28T00:13:45;102623.53;;;-0.32;79.04
77216;BME280;66210;53.282;9.864;2023-02-28T00:16:16;102629.06;;;-0.35;79.26
77216;BME280;66210;53.282;9.864;2023-02-28T00:18:44;102626.22;;;-0.38;78.90
77216;BME280;66210;53.282;9.864;2023-02-28T00:21:11;102624.94;;;-0.42;79.01
77216;BME280;66210;53.282;9.864;2023-02-28T00:23:37;102628.28;;;-0.48;79.34
77216;BME280;66210;53.282;9.864;2023-02-28T00:26:04;102626.66;;;-0.55;79.27
77216;BME280;66210;53.282;9.864;2023-02-28T00:28:31;102622.00;;;-0.59;79.38
77216;BME280;66210;53.282;9.864;2023-02-28T00:30:58;102625.03;;;-0.61;79.30
77216;BME280;66210;53.282;9.864;2023-02-28T00:33:27;102630.53;;;-0.64;79.43
77216;BME280;66210;53.282;9.864;2023-02-28T00:36:05;102628.38;;;-0.68;79.36
77216;BME280;66210;53.282;9.864;2023-02-28T00:38:32;102629.97;;;-0.76;79.87
77216;BME280;66210;53.282;9.864;2023-02-28T00:40:59;102624.00;;;-0.84;79.62
77216;BME280;66210;53.282;9.864;2023-02-28T00:43:32;102627.56;;;-0.89;79.54
77216;BME280;66210;53.282;9.864;2023-02-28T00:45:59;102620.03;;;-0.96;79.54
77216;BME280;66210;53.282;9.864;2023-02-28T00:48:26;102632.66;;;-1.01;79.88
77216;BME280;66210;53.282;9.864;2023-02-28T00:50:53;102636.19;;;-1.07;79.53
77216;BME280;66210;53.282;9.864;2023-02-28T00:53:20;102633.13;;;-1.11;79.73
77216;BME280;66210;53.282;9.864;2023-02-28T00:55:47;102630.97;;;-1.15;79.76
77216;BME280;66210;53.282;9.864;2023-02-28T00:58:14;102640.16;;;-1.21;79.63
77216;BME280;66210;53.282;9.864;2023-02-28T01:00:41;102645.34;;;-1.20;79.71
77216;BME280;66210;53.282;9.864;2023-02-28T01:03:07;102640.00;;;-1.23;80.00
77216;BME280;66210;53.282;9.864;2023-02-28T01:05:34;102640.53;;;-1.26;80.20
77216;BME280;66210;53.282;9.864;2023-02-28T01:08:01;102649.41;;;-1.28;79.14
77216;BME280;66210;53.282;9.864;2023-02-28T01:10:28;102644.03;;;-1.31;79.42
77216;BME280;66210;53.282;9.864;2023-02-28T01:12:57;102645.09;;;-1.29;79.30
77216;BME280;66210;53.282;9.864;2023-02-28T01:15:24;102641.53;;;-1.31;78.84
77216;BME280;66210;53.282;9.864;2023-02-28T01:17:51;102629.38;;;-1.35;79.61
77216;BME280;66210;53.282;9.864;2023-02-28T01:20:18;102634.19;;;-1.36;79.84
77216;BME280;66210;53.282;9.864;2023-02-28T01:22:45;102640.41;;;-1.40;80.12
77216;BME280;66210;53.282;9.864;2023-02-28T01:25:12;102641.81;;;-1.42;79.60
77216;BME280;66210;53.282;9.864;2023-02-28T01:27:39;102638.06;;;-1.45;79.90
77216;BME280;66210;53.282;9.864;2023-02-28T01:30:09;102644.44;;;-1.48;79.80
77216;BME280;66210;53.282;9.864;2023-02-28T01:32:36;102635.00;;;-1.50;79.77
77216;BME280;66210;53.282;9.864;2023-02-28T01:35:03;102636.56;;;-1.51;79.62
77216;BME280;66210;53.282;9.864;2023-02-28T01:37:30;102636.41;;;-1.52;80.07
77216;BME280;66210;53.282;9.864;2023-02-28T01:39:56;102634.59;;;-1.53;80.07
77216;BME280;66210;53.282;9.864;2023-02-28T01:42:23;102634.59;;;-1.53;79.80
77216;BME280;66210;53.282;9.864;2023-02-28T01:45:20;102626.03;;;-1.55;79.98
77216;BME280;66210;53.282;9.864;2023-02-28T01:47:51;102633.50;;;-1.55;79.47
77216;BME280;66210;53.282;9.864;2023-02-28T01:50:22;102629.22;;;-1.56;80.15
77216;BME280;66210;53.282;9.864;2023-02-28T01:52:50;102630.84;;;-1.57;80.27
77216;BME280;66210;53.282;9.864;2023-02-28T01:55:19;102625.84;;;-1.57;80.16
77216;BME280;66210;53.282;9.864;2023-02-28T01:58:06;102626.53;;;-1.58;80.01
77216;BME280;66210;53.282;9.864;2023-02-28T02:00:51;102624.56;;;-1.60;79.68
77216;BME280;66210;53.282;9.864;2023-02-28T02:03:36;102630.44;;;-1.60;80.04
77216;BME280;66210;53.282;9.864;2023-02-28T02:06:03;102629.34;;;-1.62;79.78
77216;BME280;66210;53.282;9.864;2023-02-28T02:08:30;102612.56;;;-1.70;79.71
77216;BME280;66210;53.282;9.864;2023-02-28T02:11:02;102626.47;;;-1.65;80.46
77216;BME280;66210;53.282;9.864;2023-02-28T02:13:37;102628.09;;;-1.65;79.59
77216;BME280;66210;53.282;9.864;2023-02-28T02:18:56;102640.16;;;-1.69;80.23
77216;BME280;66210;53.282;9.864;2023-02-28T02:21:52;102628.00;;;-1.73;80.39
77216;BME280;66210;53.282;9.864;2023-02-28T02:24:46;102623.53;;;-1.75;81.08
77216;BME280;66210;53.282;9.864;2023-02-28T02:33:13;102623.91;;;-1.92;81.35
77216;BME280;66210;53.282;9.864;2023-02-28T02:41:51;102627.34;;;-2.04;81.05
77216;BME280;66210;53.282;9.864;2023-02-28T02:44:27;102626.59;;;-2.11;81.59
77216;BME280;66210;53.282;9.864;2023-02-28T02:46:59;102636.13;;;-2.14;81.24
77216;BME280;66210;53.282;9.864;2023-02-28T02:49:31;102626.31;;;-2.19;81.48
77216;BME280;66210;53.282;9.864;2023-02-28T02:52:03;102638.84;;;-2.25;80.80
77216;BME280;66210;53.282;9.864;2023-02-28T02:54:57;102633.28;;;-2.30;80.79
77216;BME280;66210;53.282;9.864;2023-02-28T02:57:30;102625.25;;;-2.34;81.34
77216;BME280;66210;53.282;9.864;2023-02-28T03:00:00;102626.84;;;-2.35;81.31
77216;BME280;66210;53.282;9.864;2023-02-28T03:02:29;102621.66;;;-2.36;81.31
77216;BME280;66210;53.282;9.864;2023-02-28T03:05:21;102630.22;;;-2.34;82.62
77216;BME280;66210;53.282;9.864;2023-02-28T03:07:50;102622.38;;;-2.37;81.63
77216;BME280;66210;53.282;9.864;2023-02-28T03:13:04;102623.94;;;-2.38;82.15
77216;BME280;66210;53.282;9.864;2023-02-28T03:15:44;102630.53;;;-2.38;81.12
77216;BME280;66210;53.282;9.864;2023-02-28T03:21:28;102630.34;;;-2.40;81.17
77216;BME280;66210;53.282;9.864;2023-02-28T03:24:19;102635.13;;;-2.41;80.55
77216;BME280;66210;53.282;9.864;2023-02-28T03:26:56;102623.19;;;-2.44;81.35
77216;BME280;66210;53.282;9.864;2023-02-28T03:29:33;102625.16;;;-2.41;81.08
77216;BME280;66210;53.282;9.864;2023-02-28T03:32:26;102631.03;;;-2.41;80.83
77216;BME280;66210;53.282;9.864;2023-02-28T03:35:06;102624.06;;;-2.43;81.92
77216;BME280;66210;53.282;9.864;2023-02-28T03:37:35;102629.56;;;-2.46;81.75
77216;BME280;66210;53.282;9.864;2023-02-28T03:40:07;102631.03;;;-2.54;82.08
77216;BME280;66210;53.282;9.864;2023-02-28T03:42:36;102633.75;;;-2.65;81.55
77216;BME280;66210;53.282;9.864;2023-02-28T03:45:11;102637.97;;;-2.71;81.98
77216;BME280;66210;53.282;9.864;2023-02-28T03:47:42;102642.72;;;-2.73;81.52
77216;BME280;66210;53.282;9.864;2023-02-28T03:50:27;102645.88;;;-2.74;82.55
77216;BME280;66210;53.282;9.864;2023-02-28T03:53:10;102651.38;;;-2.76;82.63
77216;BME280;66210;53.282;9.864;2023-02-28T03:55:52;102654.78;;;-2.76;81.83
77216;BME280;66210;53.282;9.864;2023-02-28T03:58:27;102646.81;;;-2.73;82.09
77216;BME280;66210;53.282;9.864;2023-02-28T04:01:00;102641.53;;;-2.69;82.51
77216;BME280;66210;53.282;9.864;2023-02-28T04:03:37;102652.09;;;-2.64;82.00
77216;BME280;66210;53.282;9.864;2023-02-28T04:06:07;102639.22;;;-2.67;81.94
77216;BME280;66210;53.282;9.864;2023-02-28T04:08:34;102644.19;;;-2.67;81.65
77216;BME280;66210;53.282;9.864;2023-02-28T04:11:05;102643.31;;;-2.68;81.97
77216;BME280;66210;53.282;9.864;2023-02-28T04:13:33;102643.53;;;-2.66;82.56
77216;BME280;66210;53.282;9.864;2023-02-28T04:16:00;102657.53;;;-2.67;81.82
77216;BME280;66210;53.282;9.864;2023-02-28T04:18:27;102648.59;;;-2.72;82.34
77216;BME280;66210;53.282;9.864;2023-02-28T04:20:53;102648.38;;;-2.74;82.71
77216;BME280;66210;53.282;9.864;2023-02-28T04:23:20;102641.63;;;-2.75;82.30
77216;BME280;66210;53.282;9.864;2023-02-28T04:25:47;102651.38;;;-2.76;82.84
77216;BME280;66210;53.282;9.864;2023-02-28T04:28:13;102659.16;;;-2.80;81.48
77216;BME280;66210;53.282;9.864;2023-02-28T04:30:40;102652.16;;;-2.83;81.62
77216;BME280;66210;53.282;9.864;2023-02-28T04:33:07;102654.47;;;-2.84;81.54
77216;BME280;66210;53.282;9.864;2023-02-28T04:35:34;102656.25;;;-2.83;81.78
77216;BME280;66210;53.282;9.864;2023-02-28T04:38:00;102659.25;;;-2.86;82.06
77216;BME280;66210;53.282;9.864;2023-02-28T04:40:27;102655.44;;;-2.89;81.68
77216;BME280;66210;53.282;9.864;2023-02-28T04:42:54;102643.50;;;-2.92;81.87
77216;BME280;66210;53.282;9.864;2023-02-28T04:45:20;102645.81;;;-2.94;81.63
77216;BME280;66210;53.282;9.864;2023-02-28T04:47:47;102645.09;;;-2.93;82.44
77216;BME280;66210;53.282;9.864;2023-02-28T04:50:14;102647.38;;;-2.94;82.20
77216;BME280;66210;53.282;9.864;2023-02-28T04:52:41;102638.06;;;-3.02;81.83
77216;BME280;66210;53.282;9.864;2023-02-28T04:55:07;102642.44;;;-3.07;82.00
77216;BME280;66210;53.282;9.864;2023-02-28T04:57:34;102639.34;;;-3.11;81.96
77216;BME280;66210;53.282;9.864;2023-02-28T05:00:01;102643.00;;;-3.15;83.21
77216;BME280;66210;53.282;9.864;2023-02-28T05:02:34;102646.06;;;-3.23;81.85
77216;BME280;66210;53.282;9.864;2023-02-28T05:05:02;102650.44;;;-3.28;81.90
77216;BME280;66210;53.282;9.864;2023-02-28T05:07:28;102655.22;;;-3.29;82.08
77216;BME280;66210;53.282;9.864;2023-02-28T05:09:55;102652.75;;;-3.29;82.61
77216;BME280;66210;53.282;9.864;2023-02-28T05:12:22;102649.44;;;-3.36;82.06
77216;BME280;66210;53.282;9.864;2023-02-28T05:14:48;102653.59;;;-3.42;82.92
77216;BME280;66210;53.282;9.864;2023-02-28T05:17:15;102655.97;;;-3.49;82.61
77216;BME280;66210;53.282;9.864;2023-02-28T05:19:42;102660.66;;;-3.45;83.17
77216;BME280;66210;53.282;9.864;2023-02-28T05:22:14;102657.75;;;-3.48;82.37
77216;BME280;66210;53.282;9.864;2023-02-28T05:24:43;102675.06;;;-3.42;82.14
77216;BME280;66210;53.282;9.864;2023-02-28T05:27:10;102665.19;;;-3.48;82.51
77216;BME280;66210;53.282;9.864;2023-02-28T05:29:37;102658.72;;;-3.53;82.59
77216;BME280;66210;53.282;9.864;2023-02-28T05:32:09;102659.81;;;-3.51;83.00
77216;BME280;66210;53.282;9.864;2023-02-28T05:34:40;102667.50;;;-3.49;82.54
77216;BME280;66210;53.282;9.864;2023-02-28T05:37:14;102672.25;;;-3.51;81.57
77216;BME280;66210;53.282;9.864;2023-02-28T05:39:43;102663.31;;;-3.56;82.27
77216;BME280;66210;53.282;9.864;2023-02-28T05:42:10;102671.03;;;-3.60;83.00
77216;BME280;66210;53.282;9.864;2023-02-28T05:44:36;102668.13;;;-3.63;82.54
77216;BME280;66210;53.282;9.864;2023-02-28T05:47:03;102658.00;;;-3.65;81.86
77216;BME280;66210;53.282;9.864;2023-02-28T05:49:30;102665.63;;;-3.63;82.25
77216;BME280;66210;53.282;9.864;2023-02-28T05:51:56;102668.13;;;-3.63;82.43
77216;BME280;66210;53.282;9.864;2023-02-28T05:54:23;102658.50;;;-3.67;82.27
77216;BME280;66210;53.282;9.864;2023-02-28T05:56:50;102666.44;;;-3.70;82.63
77216;BME280;66210;53.282;9.864;2023-02-28T05:59:16;102679.13;;;-3.74;82.59
77216;BME280;66210;53.282;9.864;2023-02-28T06:01:45;102681.88;;;-3.78;81.80
77216;BME280;66210;53.282;9.864;2023-02-28T06:04:17;102674.09;;;-3.87;82.71
77216;BME280;66210;53.282;9.864;2023-02-28T06:06:57;102686.38;;;-3.94;82.02
77216;BME280;66210;53.282;9.864;2023-02-28T06:09:24;102687.81;;;-4.02;82.34
77216;BME280;66210;53.282;9.864;2023-02-28T06:11:51;102697.13;;;-4.06;82.59
77216;BME280;66210;53.282;9.864;2023-02-28T06:14:19;102689.69;;;-4.06;83.02
77216;BME280;66210;53.282;9.864;2023-02-28T06:16:46;102696.25;;;-4.07;82.93
77216;BME280;66210;53.282;9.864;2023-02-28T06:19:13;102692.38;;;-4.05;82.42
77216;BME280;66210;53.282;9.864;2023-02-28T06:21:40;102686.25;;;-4.01;82.05
77216;BME280;66210;53.282;9.864;2023-02-28T06:24:07;102685.94;;;-3.97;81.95
77216;BME280;66210;53.282;9.864;2023-02-28T06:26:34;102691.75;;;-3.91;82.21
77216;BME280;66210;53.282;9.864;2023-02-28T06:29:01;102697.16;;;-3.88;82.40
77216;BME280;66210;53.282;9.864;2023-02-28T06:31:27;102701.41;;;-3.87;81.17
77216;BME280;66210;53.282;9.864;2023-02-28T06:33:56;102697.34;;;-3.86;82.52
77216;BME280;66210;53.282;9.864;2023-02-28T06:36:23;102691.69;;;-3.85;81.96
77216;BME280;66210;53.282;9.864;2023-02-28T06:38:50;102692.38;;;-3.86;81.63
77216;BME280;66210;53.282;9.864;2023-02-28T06:41:25;102706.78;;;-3.84;82.18
77216;BME280;66210;53.282;9.864;2023-02-28T06:43:54;102698.03;;;-3.87;81.69
77216;BME280;66210;53.282;9.864;2023-02-28T06:46:21;102704.78;;;-3.86;82.20
77216;BME280;66210;53.282;9.864;2023-02-28T06:48:48;102707.69;;;-3.83;81.83
77216;BME280;66210;53.282;9.864;2023-02-28T06:51:17;102703.13;;;-3.80;82.75
77216;BME280;66210;53.282;9.864;2023-02-28T06:53:46;102707.84;;;-3.76;82.91
77216;BME280;66210;53.282;9.864;2023-02-28T06:56:15;102716.78;;;-3.71;82.84
77216;BME280;66210;53.282;9.864;2023-02-28T06:58:46;102712.72;;;-3.70;82.53
77216;BME280;66210;53.282;9.864;2023-02-28T07:01:15;102709.72;;;-3.68;82.71
77216;BME280;66210;53.282;9.864;2023-02-28T07:03:41;102712.84;;;-3.63;82.44
77216;BME280;66210;53.282;9.864;2023-02-28T07:06:08;102713.25;;;-3.60;82.67
77216;BME280;66210;53.282;9.864;2023-02-28T07:08:35;102716.75;;;-3.52;81.94
77216;BME280;66210;53.282;9.864;2023-02-28T07:11:02;102718.06;;;-3.49;82.83
77216;BME280;66210;53.282;9.864;2023-02-28T07:13:29;102717.31;;;-3.42;82.47
77216;BME280;66210;53.282;9.864;2023-02-28T07:16:00;102720.63;;;-3.36;83.32
77216;BME280;66210;53.282;9.864;2023-02-28T07:18:27;102725.72;;;-3.29;82.92
77216;BME280;66210;53.282;9.864;2023-02-28T07:20:54;102722.44;;;-3.22;82.23
77216;BME280;66210;53.282;9.864;2023-02-28T07:23:21;102726.22;;;-3.19;82.00
77216;BME280;66210;53.282;9.864;2023-02-28T07:25:50;102726.44;;;-3.17;82.67
77216;BME280;66210;53.282;9.864;2023-02-28T07:28:16;102724.84;;;-3.17;82.96
77216;BME280;66210;53.282;9.864;2023-02-28T07:30:43;102726.81;;;-3.14;83.11
77216;BME280;66210;53.282;9.864;2023-02-28T07:33:10;102726.53;;;-3.10;82.43
77216;BME280;66210;53.282;9.864;2023-02-28T07:35:36;102726.75;;;-3.08;82.85
77216;BME280;66210;53.282;9.864;2023-02-28T07:38:03;102721.28;;;-3.06;83.59
77216;BME280;66210;53.282;9.864;2023-02-28T07:40:30;102726.84;;;-3.01;82.71
77216;BME280;66210;53.282;9.864;2023-02-28T07:42:59;102722.31;;;-2.98;83.65
77216;BME280;66210;53.282;9.864;2023-02-28T07:45:26;102723.59;;;-2.95;84.03
77216;BME280;66210;53.282;9.864;2023-02-28T07:47:53;102723.69;;;-2.87;83.08
77216;BME280;66210;53.282;9.864;2023-02-28T07:50:19;102718.94;;;-2.86;83.35
77216;BME280;66210;53.282;9.864;2023-02-28T07:52:46;102723.84;;;-2.80;83.35
77216;BME280;66210;53.282;9.864;2023-02-28T07:55:13;102729.59;;;-2.74;83.98
77216;BME280;66210;53.282;9.864;2023-02-28T07:57:40;102725.91;;;-2.70;84.13
77216;BME280;66210;53.282;9.864;2023-02-28T08:00:09;102724.91;;;-2.65;83.85
77216;BME280;66210;53.282;9.864;2023-02-28T08:02:36;102720.53;;;-2.61;83.69
77216;BME280;66210;53.282;9.864;2023-02-28T08:05:03;102729.69;;;-2.54;84.17
77216;BME280;66210;53.282;9.864;2023-02-28T08:07:29;102726.91;;;-2.50;84.32
77216;BME280;66210;53.282;9.864;2023-02-28T08:09:56;102730.88;;;-2.45;83.67
77216;BME280;66210;53.282;9.864;2023-02-28T08:12:22;102729.00;;;-2.40;84.40
77216;BME280;66210;53.282;9.864;2023-02-28T08:14:49;102733.16;;;-2.34;84.75
77216;BME280;66210;53.282;9.864;2023-02-28T08:17:15;102725.41;;;-2.30;84.39
77216;BME280;66210;53.282;9.864;2023-02-28T08:19:45;102736.84;;;-2.24;84.96
77216;BME280;66210;53.282;9.864;2023-02-28T08:22:11;102728.41;;;-2.19;84.22
77216;BME280;66210;53.282;9.864;2023-02-28T08:24:38;102731.88;;;-2.12;84.52
77216;BME280;66210;53.282;9.864;2023-02-28T08:27:05;102729.06;;;-2.07;84.06
77216;BME280;66210;53.282;9.864;2023-02-28T08:29:31;102726.06;;;-2.05;84.89
77216;BME280;66210;53.282;9.864;2023-02-28T08:31:58;102739.19;;;-1.93;84.68
77216;BME280;66210;53.282;9.864;2023-02-28T08:34:25;102728.03;;;-1.90;84.71
77216;BME280;66210;53.282;9.864;2023-02-28T08:36:51;102735.06;;;-1.80;84.44
77216;BME280;66210;53.282;9.864;2023-02-28T08:39:19;102741.22;;;-1.71;85.08
77216;BME280;66210;53.282;9.864;2023-02-28T08:41:46;102739.72;;;-1.63;85.95
77216;BME280;66210;53.282;9.864;2023-02-28T08:44:18;102738.19;;;-1.55;85.71
77216;BME280;66210;53.282;9.864;2023-02-28T08:46:45;102735.06;;;-1.47;85.98
77216;BME280;66210;53.282;9.864;2023-02-28T08:49:11;102731.03;;;-1.39;86.50
77216;BME280;66210;53.282;9.864;2023-02-28T08:52:00;102733.69;;;-1.25;85.64
77216;BME280;66210;53.282;9.864;2023-02-28T08:54:38;102715.75;;;-1.15;86.15
77216;BME280;66210;53.282;9.864;2023-02-28T08:57:04;102721.19;;;-1.05;86.09
77216;BME280;66210;53.282;9.864;2023-02-28T08:59:31;102723.22;;;-0.95;86.11
77216;BME280;66210;53.282;9.864;2023-02-28T09:01:58;102727.75;;;-0.86;86.35
77216;BME280;66210;53.282;9.864;2023-02-28T09:04:25;102727.97;;;-0.77;85.86
77216;BME280;66210;53.282;9.864;2023-02-28T09:06:52;102732.56;;;-0.60;85.04
77216;BME280;66210;53.282;9.864;2023-02-28T09:09:18;102735.25;;;-0.24;80.44
77216;BME280;66210;53.282;9.864;2023-02-28T09:11:45;102738.28;;;0.22;77.50
77216;BME280;66210;53.282;9.864;2023-02-28T09:14:12;102743.91;;;0.62;74.89
77216;BME280;66210;53.282;9.864;2023-02-28T09:16:38;102736.75;;;0.87;74.71
77216;BME280;66210;53.282;9.864;2023-02-28T09:19:05;102736.22;;;0.90;77.32
77216;BME280;66210;53.282;9.864;2023-02-28T09:21:32;102735.69;;;0.85;78.74
77216;BME280;66210;53.282;9.864;2023-02-28T09:23:59;102728.19;;;0.78;78.93
77216;BME280;66210;53.282;9.864;2023-02-28T09:26:27;102731.41;;;0.84;69.27
77216;BME280;66210;53.282;9.864;2023-02-28T09:29:08;102734.63;;;0.90;73.28
77216;BME280;66210;53.282;9.864;2023-02-28T09:31:35;102729.63;;;0.90;73.26
77216;BME280;66210;53.282;9.864;2023-02-28T09:34:01;102736.25;;;0.97;69.02
77216;BME280;66210;53.282;9.864;2023-02-28T09:36:30;102734.44;;;1.03;73.35
77216;BME280;66210;53.282;9.864;2023-02-28T09:39:10;102735.72;;;0.99;74.77
77216;BME280;66210;53.282;9.864;2023-02-28T09:41:41;102739.09;;;1.00;75.74
77216;BME280;66210;53.282;9.864;2023-02-28T09:44:35;102741.59;;;1.00;73.72
77216;BME280;66210;53.282;9.864;2023-02-28T09:47:10;102738.56;;;1.24;65.15
77216;BME280;66210;53.282;9.864;2023-02-28T09:49:43;102739.03;;;1.57;66.11
77216;BME280;66210;53.282;9.864;2023-02-28T09:52:21;102740.31;;;1.98;63.94
77216;BME280;66210;53.282;9.864;2023-02-28T09:54:50;102739.81;;;2.24;63.61
77216;BME280;66210;53.282;9.864;2023-02-28T10:05:31;102736.47;;;2.16;66.26
77216;BME280;66210;53.282;9.864;2023-02-28T10:08:19;102735.81;;;2.33;62.61
77216;BME280;66210;53.282;9.864;2023-02-28T10:10:55;102739.81;;;2.54;61.19
77216;BME280;66210;53.282;9.864;2023-02-28T10:13:32;102737.31;;;2.77;60.56
77216;BME280;66210;53.282;9.864;2023-02-28T10:19:03;102741.38;;;3.07;59.16
77216;BME280;66210;53.282;9.864;2023-02-28T10:21:36;102748.13;;;3.15;59.56
77216;BME280;66210;53.282;9.864;2023-02-28T10:24:19;102739.47;;;3.20;60.49
77216;BME280;66210;53.282;9.864;2023-02-28T10:26:47;102749.69;;;3.22;62.08
77216;BME280;66210;53.282;9.864;2023-02-28T10:29:15;102742.53;;;3.18;61.03
77216;BME280;66210;53.282;9.864;2023-02-28T10:31:41;102741.47;;;3.16;61.83
77216;BME280;66210;53.282;9.864;2023-02-28T10:34:11;102745.41;;;3.21;57.23
77216;BME280;66210;53.282;9.864;2023-02-28T10:36:41;102737.13;;;3.22;57.69
77216;BME280;66210;53.282;9.864;2023-02-28T10:39:34;102735.03;;;3.33;57.31
77216;BME280;66210;53.282;9.864;2023-02-28T10:42:01;102738.50;;;3.43;57.56
77216;BME280;66210;53.282;9.864;2023-02-28T10:44:28;102734.41;;;3.43;58.43
77216;BME280;66210;53.282;9.864;2023-02-28T10:46:55;102735.59;;;3.47;58.05
77216;BME280;66210;53.282;9.864;2023-02-28T10:49:25;102723.78;;;3.62;59.97
77216;BME280;66210;53.282;9.864;2023-02-28T10:51:59;102717.13;;;3.78;61.26
77216;BME280;66210;53.282;9.864;2023-02-28T10:54:31;102716.69;;;3.98;60.42
77216;BME280;66210;53.282;9.864;2023-02-28T10:57:19;102716.81;;;4.15;59.00
77216;BME280;66210;53.282;9.864;2023-02-28T10:59:50;102720.53;;;4.35;58.11
77216;BME280;66210;53.282;9.864;2023-02-28T11:02:38;102720.88;;;4.47;55.52
77216;BME280;66210;53.282;9.864;2023-02-28T11:05:30;102722.44;;;4.62;56.56
77216;BME280;66210;53.282;9.864;2023-02-28T11:08:17;102723.28;;;4.87;55.45
77216;BME280;66210;53.282;9.864;2023-02-28T11:10:47;102722.44;;;5.04;55.32
77216;BME280;66210;53.282;9.864;2023-02-28T11:13:19;102721.50;;;5.28;55.77
77216;BME280;66210;53.282;9.864;2023-02-28T11:15:55;102698.28;;;5.74;54.72
77216;BME280;66210;53.282;9.864;2023-02-28T11:18:51;102712.97;;;5.96;53.47
77216;BME280;66210;53.282;9.864;2023-02-28T11:21:25;102714.47;;;6.02;50.25
77216;BME280;66210;53.282;9.864;2023-02-28T11:24:14;102702.56;;;5.93;50.99
77216;BME280;66210;53.282;9.864;2023-02-28T11:26:45;102710.16;;;6.10;53.77
77216;BME280;66210;53.282;9.864;2023-02-28T11:29:28;102714.16;;;6.26;50.78
77216;BME280;66210;53.282;9.864;2023-02-28T11:32:15;102711.16;;;6.30;48.89
77216;BME280;66210;53.282;9.864;2023-02-28T11:34:44;102696.44;;;6.34;52.49
77216;BME280;66210;53.282;9.864;2023-02-28T11:37:14;102703.88;;;6.41;51.66
77216;BME280;66210;53.282;9.864;2023-02-28T11:39:42;102708.34;;;6.18;46.11
77216;BME280;66210;53.282;9.864;2023-02-28T11:42:31;102702.75;;;5.94;47.13
77216;BME280;66210;53.282;9.864;2023-02-28T11:48:08;102705.22;;;5.51;47.47
77216;BME280;66210;53.282;9.864;2023-02-28T11:56:44;102698.53;;;5.34;51.03
77216;BME280;66210;53.282;9.864;2023-02-28T11:59:42;102697.03;;;5.27;50.56
77216;BME280;66210;53.282;9.864;2023-02-28T12:02:47;102689.03;;;5.23;50.98
77216;BME280;66210;53.282;9.864;2023-02-28T12:05:38;102683.06;;;5.13;49.16
77216;BME280;66210;53.282;9.864;2023-02-28T12:11:19;102675.16;;;4.93;49.06
77216;BME280;66210;53.282;9.864;2023-02-28T12:14:06;102680.19;;;4.93;49.21
77216;BME280;66210;53.282;9.864;2023-02-28T12:22:49;102668.31;;;4.83;50.41
77216;BME280;66210;53.282;9.864;2023-02-28T12:28:17;102660.31;;;4.87;50.12
77216;BME280;66210;53.282;9.864;2023-02-28T12:30:55;102656.19;;;4.88;49.06
77216;BME280;66210;53.282;9.864;2023-02-28T12:33:27;102656.94;;;4.87;49.48
77216;BME280;66210;53.282;9.864;2023-02-28T12:35:57;102650.25;;;4.87;50.11
77216;BME280;66210;53.282;9.864;2023-02-28T12:38:45;102650.97;;;4.86;50.19
77216;BME280;66210;53.282;9.864;2023-02-28T12:41:19;102652.78;;;4.87;50.97
77216;BME280;66210;53.282;9.864;2023-02-28T12:43:57;102647.41;;;4.84;51.81
77216;BME280;66210;53.282;9.864;2023-02-28T12:46:36;102633.22;;;4.85;52.38
77216;BME280;66210;53.282;9.864;2023-02-28T12:49:15;102630.69;;;4.85;51.01
77216;BME280;66210;53.282;9.864;2023-02-28T12:51:44;102632.31;;;4.84;49.29
77216;BME280;66210;53.282;9.864;2023-02-28T12:54:25;102625.34;;;4.90;51.12
77216;BME280;66210;53.282;9.864;2023-02-28T12:59:55;102619.72;;;4.93;47.71
77216;BME280;66210;53.282;9.864;2023-02-28T13:05:31;102616.19;;;4.99;48.88
77216;BME280;66210;53.282;9.864;2023-02-28T13:11:23;102601.66;;;4.97;50.83
77216;BME280;66210;53.282;9.864;2023-02-28T13:13:57;102603.75;;;4.92;49.43
77216;BME280;66210;53.282;9.864;2023-02-28T13:16:24;102597.66;;;4.90;49.24
77216;BME280;66210;53.282;9.864;2023-02-28T13:18:51;102595.47;;;4.93;50.02
77216;BME280;66210;53.282;9.864;2023-02-28T13:34:33;102579.56;;;4.86;49.79
77216;BME280;66210;53.282;9.864;2023-02-28T13:39:54;102587.72;;;4.83;48.82
77216;BME280;66210;53.282;9.864;2023-02-28T13:47:39;102590.97;;;4.91;48.55
77216;BME280;66210;53.282;9.864;2023-02-28T13:55:46;102588.34;;;4.98;48.93
77216;BME280;66210;53.282;9.864;2023-02-28T13:58:28;102583.00;;;4.95;48.99
77216;BME280;66210;53.282;9.864;2023-02-28T14:01:26;102588.03;;;4.95;47.85
77216;BME280;66210;53.282;9.864;2023-02-28T14:07:04;102574.56;;;4.94;46.63
77216;BME280;66210;53.282;9.864;2023-02-28T14:09:38;102583.88;;;4.95;46.71
77216;BME280;66210;53.282;9.864;2023-02-28T14:18:01;102590.69;;;4.88;46.25
77216;BME280;66210;53.282;9.864;2023-02-28T14:20:32;102588.34;;;4.89;46.72
77216;BME280;66210;53.282;9.864;2023-02-28T14:23:24;102586.53;;;4.88;47.14
77216;BME280;66210;53.282;9.864;2023-02-28T14:26:13;102590.97;;;4.91;47.09
77216;BME280;66210;53.282;9.864;2023-02-28T14:29:19;102586.53;;;4.88;47.78
77216;BME280;66210;53.282;9.864;2023-02-28T14:37:53;102586.81;;;4.74;48.01
77216;BME280;66210;53.282;9.864;2023-02-28T14:40:30;102585.00;;;4.73;47.94
77216;BME280;66210;53.282;9.864;2023-02-28T14:43:00;102591.09;;;4.75;47.57
77216;BME280;66210;53.282;9.864;2023-02-28T14:45:49;102597.34;;;4.78;47.28
77216;BME280;66210;53.282;9.864;2023-02-28T14:48:53;102597.63;;;4.82;48.03
77216;BME280;66210;53.282;9.864;2023-02-28T14:51:22;102585.47;;;4.77;48.77
77216;BME280;66210;53.282;9.864;2023-02-28T14:53:56;102587.84;;;4.76;47.86
77216;BME280;66210;53.282;9.864;2023-02-28T14:59:24;102591.84;;;4.74;47.16
77216;BME280;66210;53.282;9.864;2023-02-28T15:01:52;102594.66;;;4.77;47.61
77216;BME280;66210;53.282;9.864;2023-02-28T15:04:33;102593.63;;;4.75;48.17